sensor_id;sensor_type;location;lat;lon;timestamp;P1;durP1;ratioP1;P2;durP2;ratioP2
9461;SDS011;4769;42.660;23.262;2023-10-09T00:01:00;6.32;;;2.70;;
9461;SDS011;4769;42.660;23.262;2023-10-09T00:03:26;7.57;;;2.67;;
9461;SDS011;4769;42.660;23.262;2023-10-09T00:05:51;8.35;;;3.03;;
9461;SDS011;4769;42.660;23.262;2023-10-09T00:08:17;9.70;;;3.03;;
9461;SDS011;4769;42.660;23.262;2023-10-09T00:10:45;6.13;;;2.97;;
9461;SDS011;4769;42.660;23.262;2023-10-09T00:13:11;8.10;;;2.70;;
9461;SDS011;4769;42.660;23.262;2023-10-09T00:15:37;9.25;;;2.63;;
9461;SDS011;4769;42.660;23.262;2023-10-09T00:18:03;4.97;;;2.38;;
9461;SDS011;4769;42.660;23.262;2023-10-09T00:20:29;9.13;;;2.88;;
9461;SDS011;4769;42.660;23.262;2023-10-09T00:22:54;6.82;;;2.80;;
9461;SDS011;4769;42.660;23.262;2023-10-09T00:25:20;9.50;;;2.60;;
9461;SDS011;4769;42.660;23.262;2023-10-09T00:27:48;6.15;;;2.47;;
9461;SDS011;4769;42.660;23.262;2023-10-09T00:30:15;7.05;;;2.33;;
9461;SDS011;4769;42.660;23.262;2023-10-09T00:32:42;3.63;;;2.42;;
9461;SDS011;4769;42.660;23.262;2023-10-09T00:35:08;4.63;;;2.33;;
9461;SDS011;4769;42.660;23.262;2023-10-09T00:37:33;7.35;;;2.40;;
9461;SDS011;4769;42.660;23.262;2023-10-09T00:39:59;5.43;;;2.20;;
9461;SDS011;4769;42.660;23.262;2023-10-09T00:42:25;8.82;;;2.67;;
9461;SDS011;4769;42.660;23.262;2023-10-09T00:44:53;7.38;;;2.92;;
9461;SDS011;4769;42.660;23.262;2023-10-09T00:47:19;4.45;;;2.22;;
9461;SDS011;4769;42.660;23.262;2023-10-09T00:49:45;5.65;;;2.80;;
9461;SDS011;4769;42.660;23.262;2023-10-09T00:52:10;6.45;;;2.05;;
9461;SDS011;4769;42.660;23.262;2023-10-09T00:54:36;4.35;;;2.10;;
9461;SDS011;4769;42.660;23.262;2023-10-09T00:57:02;5.95;;;2.55;;
9461;SDS011;4769;42.660;23.262;2023-10-09T00:59:28;4.80;;;2.20;;
9461;SDS011;4769;42.660;23.262;2023-10-09T01:01:57;5.85;;;2.17;;
9461;SDS011;4769;42.660;23.262;2023-10-09T01:04:23;3.80;;;2.30;;
9461;SDS011;4769;42.660;23.262;2023-10-09T01:06:49;6.78;;;2.20;;
9461;SDS011;4769;42.660;23.262;2023-10-09T01:09:14;4.78;;;2.40;;
9461;SDS011;4769;42.660;23.262;2023-10-09T01:11:40;4.22;;;2.20;;
9461;SDS011;4769;42.660;23.262;2023-10-09T01:14:06;6.20;;;1.98;;
9461;SDS011;4769;42.660;23.262;2023-10-09T01:16:31;3.80;;;2.00;;
9461;SDS011;4769;42.660;23.262;2023-10-09T01:19:00;3.50;;;2.08;;
9461;SDS011;4769;42.660;23.262;2023-10-09T01:21:25;5.60;;;2.30;;
9461;SDS011;4769;42.660;23.262;2023-10-09T01:23:54;5.88;;;2.03;;
9461;SDS011;4769;42.660;23.262;2023-10-09T01:26:19;6.95;;;2.08;;
9461;SDS011;4769;42.660;23.262;2023-10-09T01:28:45;3.88;;;1.90;;
9461;SDS011;4769;42.660;23.262;2023-10-09T01:31:11;3.35;;;1.98;;
9461;SDS011;4769;42.660;23.262;2023-10-09T01:33:36;7.63;;;2.28;;
9461;SDS011;4769;42.660;23.262;2023-10-09T01:36:02;2.97;;;2.05;;
9461;SDS011;4769;42.660;23.262;2023-10-09T01:38:28;3.35;;;2.03;;
9461;SDS011;4769;42.660;23.262;2023-10-09T01:40:56;4.43;;;1.90;;
9461;SDS011;4769;42.660;23.262;2023-10-09T01:43:22;1.73;;;1.60;;
9461;SDS011;4769;42.660;23.262;2023-10-09T01:45:47;3.58;;;1.88;;
9461;SDS011;4769;42.660;23.262;2023-10-09T01:48:13;3.30;;;1.95;;
9461;SDS011;4769;42.660;23.262;2023-10-09T01:50:39;5.90;;;2.13;;
9461;SDS011;4769;42.660;23.262;2023-10-09T01:53:04;5.03;;;2.17;;
9461;SDS011;4769;42.660;23.262;2023-10-09T01:55:30;3.35;;;1.70;;
9461;SDS011;4769;42.660;23.262;2023-10-09T01:57:59;6.07;;;2.15;;
9461;SDS011;4769;42.660;23.262;2023-10-09T02:00:25;2.55;;;1.80;;
9461;SDS011;4769;42.660;23.262;2023-10-09T02:02:51;4.38;;;1.90;;
9461;SDS011;4769;42.660;23.262;2023-10-09T02:05:16;3.03;;;1.88;;
9461;SDS011;4769;42.660;23.262;2023-10-09T02:07:42;6.35;;;2.20;;
9461;SDS011;4769;42.660;23.262;2023-10-09T02:10:08;5.40;;;2.15;;
9461;SDS011;4769;42.660;23.262;2023-10-09T02:12:34;3.70;;;2.45;;
9461;SDS011;4769;42.660;23.262;2023-10-09T02:15:02;3.90;;;2.13;;
9461;SDS011;4769;42.660;23.262;2023-10-09T02:17:28;3.72;;;1.85;;
9461;SDS011;4769;42.660;23.262;2023-10-09T02:19:54;5.38;;;2.03;;
9461;SDS011;4769;42.660;23.262;2023-10-09T02:22:20;5.00;;;1.88;;
9461;SDS011;4769;42.660;23.262;2023-10-09T02:24:45;5.68;;;2.30;;
9461;SDS011;4769;42.660;23.262;2023-10-09T02:27:11;8.23;;;1.80;;
9461;SDS011;4769;42.660;23.262;2023-10-09T02:29:37;2.03;;;1.70;;
9461;SDS011;4769;42.660;23.262;2023-10-09T02:32:05;4.00;;;2.00;;
9461;SDS011;4769;42.660;23.262;2023-10-09T02:34:31;3.85;;;2.25;;
9461;SDS011;4769;42.660;23.262;2023-10-09T02:36:56;5.28;;;1.77;;
9461;SDS011;4769;42.660;23.262;2023-10-09T02:39:22;5.25;;;2.30;;
9461;SDS011;4769;42.660;23.262;2023-10-09T02:41:48;2.28;;;1.67;;
9461;SDS011;4769;42.660;23.262;2023-10-09T02:44:13;5.03;;;1.90;;
9461;SDS011;4769;42.660;23.262;2023-10-09T02:46:39;3.20;;;1.88;;
9461;SDS011;4769;42.660;23.262;2023-10-09T02:49:07;2.70;;;1.50;;
9461;SDS011;4769;42.660;23.262;2023-10-09T02:51:33;2.45;;;1.70;;
9461;SDS011;4769;42.660;23.262;2023-10-09T02:53:59;4.85;;;2.05;;
9461;SDS011;4769;42.660;23.262;2023-10-09T02:56:26;4.80;;;2.10;;
9461;SDS011;4769;42.660;23.262;2023-10-09T02:58:51;4.68;;;1.90;;
9461;SDS011;4769;42.660;23.262;2023-10-09T03:01:17;4.03;;;1.83;;
9461;SDS011;4769;42.660;23.262;2023-10-09T03:03:43;6.32;;;2.00;;
9461;SDS011;4769;42.660;23.262;2023-10-09T03:06:11;2.78;;;1.60;;
9461;SDS011;4769;42.660;23.262;2023-10-09T03:08:37;3.88;;;2.00;;
9461;SDS011;4769;42.660;23.262;2023-10-09T03:11:02;2.10;;;1.60;;
9461;SDS011;4769;42.660;23.262;2023-10-09T03:13:28;2.10;;;1.80;;
9461;SDS011;4769;42.660;23.262;2023-10-09T03:15:55;3.88;;;1.73;;
9461;SDS011;4769;42.660;23.262;2023-10-09T03:18:21;4.90;;;1.60;;
9461;SDS011;4769;42.660;23.262;2023-10-09T03:20:47;3.55;;;2.08;;
9461;SDS011;4769;42.660;23.262;2023-10-09T03:23:15;3.92;;;1.65;;
9461;SDS011;4769;42.660;23.262;2023-10-09T03:25:41;2.58;;;2.10;;
9461;SDS011;4769;42.660;23.262;2023-10-09T03:28:07;3.20;;;1.83;;
9461;SDS011;4769;42.660;23.262;2023-10-09T03:30:32;5.25;;;1.80;;
9461;SDS011;4769;42.660;23.262;2023-10-09T03:32:58;2.63;;;1.83;;
9461;SDS011;4769;42.660;23.262;2023-10-09T03:35:24;4.13;;;1.55;;
9461;SDS011;4769;42.660;23.262;2023-10-09T03:37:50;3.13;;;1.48;;
9461;SDS011;4769;42.660;23.262;2023-10-09T03:40:20;3.45;;;1.48;;
9461;SDS011;4769;42.660;23.262;2023-10-09T03:42:46;3.67;;;1.60;;
9461;SDS011;4769;42.660;23.262;2023-10-09T03:45:12;4.38;;;1.50;;
9461;SDS011;4769;42.660;23.262;2023-10-09T03:47:38;2.80;;;1.50;;
9461;SDS011;4769;42.660;23.262;2023-10-09T03:50:04;2.50;;;1.33;;
9461;SDS011;4769;42.660;23.262;2023-10-09T03:52:30;1.45;;;1.33;;
9461;SDS011;4769;42.660;23.262;2023-10-09T03:54:56;3.42;;;1.52;;
9461;SDS011;4769;42.660;23.262;2023-10-09T03:57:24;2.95;;;1.85;;
9461;SDS011;4769;42.660;23.262;2023-10-09T03:59:50;4.53;;;1.52;;
9461;SDS011;4769;42.660;23.262;2023-10-09T04:02:16;3.65;;;1.40;;
9461;SDS011;4769;42.660;23.262;2023-10-09T04:04:42;1.90;;;1.25;;
9461;SDS011;4769;42.660;23.262;2023-10-09T04:07:07;2.20;;;1.40;;
9461;SDS011;4769;42.660;23.262;2023-10-09T04:09:36;2.92;;;1.58;;
9461;SDS011;4769;42.660;23.262;2023-10-09T04:12:02;2.95;;;1.17;;
9461;SDS011;4769;42.660;23.262;2023-10-09T04:14:30;1.67;;;1.27;;
9461;SDS011;4769;42.660;23.262;2023-10-09T04:16:56;1.70;;;1.05;;
9461;SDS011;4769;42.660;23.262;2023-10-09T04:19:21;5.50;;;1.48;;
9461;SDS011;4769;42.660;23.262;2023-10-09T04:21:47;2.70;;;1.60;;
9461;SDS011;4769;42.660;23.262;2023-10-09T04:24:13;1.33;;;0.90;;
9461;SDS011;4769;42.660;23.262;2023-10-09T04:26:39;2.00;;;1.40;;
9461;SDS011;4769;42.660;23.262;2023-10-09T04:29:05;4.15;;;1.90;;
9461;SDS011;4769;42.660;23.262;2023-10-09T04:31:33;1.75;;;1.10;;
9461;SDS011;4769;42.660;23.262;2023-10-09T04:33:59;2.00;;;1.05;;
9461;SDS011;4769;42.660;23.262;2023-10-09T04:36:25;2.45;;;1.48;;
9461;SDS011;4769;42.660;23.262;2023-10-09T04:38:51;1.52;;;1.42;;
9461;SDS011;4769;42.660;23.262;2023-10-09T04:41:18;1.65;;;1.50;;
9461;SDS011;4769;42.660;23.262;2023-10-09T04:43:44;4.78;;;1.48;;
9461;SDS011;4769;42.660;23.262;2023-10-09T04:46:09;1.40;;;1.30;;
9461;SDS011;4769;42.660;23.262;2023-10-09T04:48:37;2.20;;;1.40;;
9461;SDS011;4769;42.660;23.262;2023-10-09T04:51:03;3.40;;;1.40;;
9461;SDS011;4769;42.660;23.262;2023-10-09T04:53:29;3.63;;;1.27;;
9461;SDS011;4769;42.660;23.262;2023-10-09T04:55:55;1.45;;;1.20;;
9461;SDS011;4769;42.660;23.262;2023-10-09T04:58:21;1.45;;;1.35;;
9461;SDS011;4769;42.660;23.262;2023-10-09T05:00:47;1.65;;;0.93;;
9461;SDS011;4769;42.660;23.262;2023-10-09T05:03:12;1.50;;;1.30;;
9461;SDS011;4769;42.660;23.262;2023-10-09T05:05:41;4.60;;;1.05;;
9461;SDS011;4769;42.660;23.262;2023-10-09T05:08:06;1.60;;;1.10;;
9461;SDS011;4769;42.660;23.262;2023-10-09T05:10:32;1.52;;;1.42;;
9461;SDS011;4769;42.660;23.262;2023-10-09T05:12:58;1.23;;;1.08;;
9461;SDS011;4769;42.660;23.262;2023-10-09T05:15:24;2.08;;;1.33;;
9461;SDS011;4769;42.660;23.262;2023-10-09T05:17:49;1.35;;;1.15;;
9461;SDS011;4769;42.660;23.262;2023-10-09T05:20:15;4.80;;;1.30;;
9461;SDS011;4769;42.660;23.262;2023-10-09T05:22:43;2.00;;;1.25;;
9461;SDS011;4769;42.660;23.262;2023-10-09T05:25:09;1.50;;;1.20;;
9461;SDS011;4769;42.660;23.262;2023-10-09T05:27:35;2.25;;;1.27;;
9461;SDS011;4769;42.660;23.262;2023-10-09T05:30:00;1.75;;;1.42;;
9461;SDS011;4769;42.660;23.262;2023-10-09T05:32:26;3.15;;;1.30;;
9461;SDS011;4769;42.660;23.262;2023-10-09T05:34:52;2.83;;;1.33;;
9461;SDS011;4769;42.660;23.262;2023-10-09T05:37:17;3.38;;;1.50;;
9461;SDS011;4769;42.660;23.262;2023-10-09T05:39:46;1.90;;;1.23;;
9461;SDS011;4769;42.660;23.262;2023-10-09T05:42:12;1.95;;;1.23;;
9461;SDS011;4769;42.660;23.262;2023-10-09T05:44:37;8.48;;;1.63;;
9461;SDS011;4769;42.660;23.262;2023-10-09T05:47:03;1.75;;;1.20;;
9461;SDS011;4769;42.660;23.262;2023-10-09T05:49:29;3.47;;;1.33;;
9461;SDS011;4769;42.660;23.262;2023-10-09T05:51:54;1.35;;;1.25;;
9461;SDS011;4769;42.660;23.262;2023-10-09T05:54:20;3.10;;;1.30;;
9461;SDS011;4769;42.660;23.262;2023-10-09T05:56:48;1.73;;;1.20;;
9461;SDS011;4769;42.660;23.262;2023-10-09T05:59:15;2.00;;;1.33;;
9461;SDS011;4769;42.660;23.262;2023-10-09T06:01:40;2.78;;;1.70;;
9461;SDS011;4769;42.660;23.262;2023-10-09T06:04:06;1.50;;;1.40;;
9461;SDS011;4769;42.660;23.262;2023-10-09T06:06:32;1.50;;;1.40;;
9461;SDS011;4769;42.660;23.262;2023-10-09T06:08:57;2.10;;;1.38;;
9461;SDS011;4769;42.660;23.262;2023-10-09T06:11:23;4.10;;;1.02;;
9461;SDS011;4769;42.660;23.262;2023-10-09T06:13:51;4.20;;;1.30;;
9461;SDS011;4769;42.660;23.262;2023-10-09T06:16:17;3.40;;;1.52;;
9461;SDS011;4769;42.660;23.262;2023-10-09T06:18:43;1.33;;;1.08;;
9461;SDS011;4769;42.660;23.262;2023-10-09T06:21:08;1.73;;;1.23;;
9461;SDS011;4769;42.660;23.262;2023-10-09T06:23:34;1.23;;;1.05;;
9461;SDS011;4769;42.660;23.262;2023-10-09T06:26:00;1.63;;;1.27;;
9461;SDS011;4769;42.660;23.262;2023-10-09T06:28:26;3.42;;;1.38;;
9461;SDS011;4769;42.660;23.262;2023-10-09T06:30:54;3.40;;;1.40;;
9461;SDS011;4769;42.660;23.262;2023-10-09T06:33:20;2.50;;;1.50;;
9461;SDS011;4769;42.660;23.262;2023-10-09T06:35:46;2.40;;;1.50;;
9461;SDS011;4769;42.660;23.262;2023-10-09T06:38:12;7.25;;;2.05;;
9461;SDS011;4769;42.660;23.262;2023-10-09T06:40:38;1.98;;;1.42;;
9461;SDS011;4769;42.660;23.262;2023-10-09T06:43:04;3.13;;;1.48;;
9461;SDS011;4769;42.660;23.262;2023-10-09T06:45:30;3.17;;;1.60;;
9461;SDS011;4769;42.660;23.262;2023-10-09T06:47:58;1.40;;;1.30;;
9461;SDS011;4769;42.660;23.262;2023-10-09T06:50:24;1.80;;;1.67;;
9461;SDS011;4769;42.660;23.262;2023-10-09T06:52:50;2.67;;;1.60;;
9461;SDS011;4769;42.660;23.262;2023-10-09T06:55:16;1.33;;;1.23;;
9461;SDS011;4769;42.660;23.262;2023-10-09T06:57:42;2.30;;;1.50;;
9461;SDS011;4769;42.660;23.262;2023-10-09T07:00:08;3.88;;;1.88;;
9461;SDS011;4769;42.660;23.262;2023-10-09T07:02:34;2.28;;;1.40;;
9461;SDS011;4769;42.660;23.262;2023-10-09T07:05:03;3.53;;;1.80;;
9461;SDS011;4769;42.660;23.262;2023-10-09T07:07:29;1.88;;;1.48;;
9461;SDS011;4769;42.660;23.262;2023-10-09T07:09:55;4.40;;;2.03;;
9461;SDS011;4769;42.660;23.262;2023-10-09T07:12:20;5.20;;;2.35;;
9461;SDS011;4769;42.660;23.262;2023-10-09T07:14:46;2.15;;;1.40;;
9461;SDS011;4769;42.660;23.262;2023-10-09T07:17:12;1.92;;;1.63;;
9461;SDS011;4769;42.660;23.262;2023-10-09T07:19:37;1.88;;;1.70;;
9461;SDS011;4769;42.660;23.262;2023-10-09T07:22:06;1.60;;;1.50;;
9461;SDS011;4769;42.660;23.262;2023-10-09T07:24:31;2.22;;;1.40;;
9461;SDS011;4769;42.660;23.262;2023-10-09T07:26:58;4.00;;;1.60;;
9461;SDS011;4769;42.660;23.262;2023-10-09T07:29:23;2.30;;;1.52;;
9461;SDS011;4769;42.660;23.262;2023-10-09T07:31:49;2.42;;;1.50;;
9461;SDS011;4769;42.660;23.262;2023-10-09T07:34:17;1.75;;;1.20;;
9461;SDS011;4769;42.660;23.262;2023-10-09T07:36:42;2.65;;;1.60;;
9461;SDS011;4769;42.660;23.262;2023-10-09T07:39:10;2.65;;;1.40;;
9461;SDS011;4769;42.660;23.262;2023-10-09T07:41:36;2.88;;;1.80;;
9461;SDS011;4769;42.660;23.262;2023-10-09T07:44:02;2.35;;;1.50;;
9461;SDS011;4769;42.660;23.262;2023-10-09T07:46:28;5.28;;;1.50;;
9461;SDS011;4769;42.660;23.262;2023-10-09T07:48:54;5.78;;;1.20;;
9461;SDS011;4769;42.660;23.262;2023-10-09T07:51:20;3.78;;;1.50;;
9461;SDS011;4769;42.660;23.262;2023-10-09T07:53:46;3.13;;;1.50;;
9461;SDS011;4769;42.660;23.262;2023-10-09T07:56:15;2.95;;;1.25;;
9461;SDS011;4769;42.660;23.262;2023-10-09T07:58:40;2.30;;;1.27;;
9461;SDS011;4769;42.660;23.262;2023-10-09T08:01:06;1.38;;;1.27;;
9461;SDS011;4769;42.660;23.262;2023-10-09T08:03:32;2.03;;;1.30;;
9461;SDS011;4769;42.660;23.262;2023-10-09T08:05:58;2.67;;;1.45;;
9461;SDS011;4769;42.660;23.262;2023-10-09T08:08:23;1.30;;;1.20;;
9461;SDS011;4769;42.660;23.262;2023-10-09T08:10:49;1.92;;;1.25;;
9461;SDS011;4769;42.660;23.262;2023-10-09T08:13:17;1.83;;;1.52;;
9461;SDS011;4769;42.660;23.262;2023-10-09T08:15:43;2.22;;;1.20;;
9461;SDS011;4769;42.660;23.262;2023-10-09T08:18:09;6.80;;;1.63;;
9461;SDS011;4769;42.660;23.262;2023-10-09T08:20:34;1.52;;;1.35;;
9461;SDS011;4769;42.660;23.262;2023-10-09T08:23:00;1.30;;;1.20;;
9461;SDS011;4769;42.660;23.262;2023-10-09T08:25:26;1.73;;;1.33;;
9461;SDS011;4769;42.660;23.262;2023-10-09T08:27:52;1.10;;;1.00;;
9461;SDS011;4769;42.660;23.262;2023-10-09T08:30:21;1.67;;;1.30;;
9461;SDS011;4769;42.660;23.262;2023-10-09T08:32:47;2.80;;;1.33;;
9461;SDS011;4769;42.660;23.262;2023-10-09T08:35:14;1.58;;;1.30;;
9461;SDS011;4769;42.660;23.262;2023-10-09T08:37:39;2.35;;;1.58;;
9461;SDS011;4769;42.660;23.262;2023-10-09T08:40:06;3.50;;;1.58;;
9461;SDS011;4769;42.660;23.262;2023-10-09T08:42:32;2.10;;;1.33;;
9461;SDS011;4769;42.660;23.262;2023-10-09T08:44:58;1.83;;;1.50;;
9461;SDS011;4769;42.660;23.262;2023-10-09T08:47:28;2.55;;;1.67;;
9461;SDS011;4769;42.660;23.262;2023-10-09T08:49:55;2.33;;;1.70;;
9461;SDS011;4769;42.660;23.262;2023-10-09T08:52:22;2.63;;;1.60;;
9461;SDS011;4769;42.660;23.262;2023-10-09T08:54:49;2.67;;;1.98;;
9461;SDS011;4769;42.660;23.262;2023-10-09T08:57:15;8.43;;;2.10;;
9461;SDS011;4769;42.660;23.262;2023-10-09T08:59:41;2.45;;;1.35;;
9461;SDS011;4769;42.660;23.262;2023-10-09T09:02:07;4.45;;;1.60;;
9461;SDS011;4769;42.660;23.262;2023-10-09T09:04:36;2.13;;;1.40;;
9461;SDS011;4769;42.660;23.262;2023-10-09T09:07:02;4.43;;;1.60;;
9461;SDS011;4769;42.660;23.262;2023-10-09T09:09:28;2.53;;;1.42;;
9461;SDS011;4769;42.660;23.262;2023-10-09T09:11:53;3.28;;;1.73;;
9461;SDS011;4769;42.660;23.262;2023-10-09T09:14:19;3.72;;;1.40;;
9461;SDS011;4769;42.660;23.262;2023-10-09T09:16:45;3.13;;;1.55;;
9461;SDS011;4769;42.660;23.262;2023-10-09T09:19:11;2.33;;;1.30;;
9461;SDS011;4769;42.660;23.262;2023-10-09T09:21:40;2.78;;;1.80;;
9461;SDS011;4769;42.660;23.262;2023-10-09T09:24:07;2.47;;;1.35;;
9461;SDS011;4769;42.660;23.262;2023-10-09T09:26:34;1.40;;;1.30;;
9461;SDS011;4769;42.660;23.262;2023-10-09T09:29:02;2.70;;;1.23;;
9461;SDS011;4769;42.660;23.262;2023-10-09T09:31:28;2.45;;;1.25;;
9461;SDS011;4769;42.660;23.262;2023-10-09T09:33:55;3.85;;;1.35;;
9461;SDS011;4769;42.660;23.262;2023-10-09T09:36:21;4.22;;;1.67;;
9461;SDS011;4769;42.660;23.262;2023-10-09T09:38:50;4.13;;;1.58;;
9461;SDS011;4769;42.660;23.262;2023-10-09T09:41:16;4.97;;;1.58;;
9461;SDS011;4769;42.660;23.262;2023-10-09T09:43:42;4.53;;;1.50;;
9461;SDS011;4769;42.660;23.262;2023-10-09T09:46:08;4.85;;;1.80;;
9461;SDS011;4769;42.660;23.262;2023-10-09T09:48:39;3.17;;;1.40;;
9461;SDS011;4769;42.660;23.262;2023-10-09T09:51:05;1.70;;;1.20;;
9461;SDS011;4769;42.660;23.262;2023-10-09T09:53:31;2.33;;;1.50;;
9461;SDS011;4769;42.660;23.262;2023-10-09T09:55:59;3.97;;;1.50;;
9461;SDS011;4769;42.660;23.262;2023-10-09T09:58:28;3.17;;;1.40;;
9461;SDS011;4769;42.660;23.262;2023-10-09T10:00:56;2.40;;;1.40;;
9461;SDS011;4769;42.660;23.262;2023-10-09T10:03:27;2.10;;;1.33;;
9461;SDS011;4769;42.660;23.262;2023-10-09T10:05:56;3.00;;;1.65;;
9461;SDS011;4769;42.660;23.262;2023-10-09T10:08:23;2.25;;;1.67;;
9461;SDS011;4769;42.660;23.262;2023-10-09T10:10:49;2.70;;;1.48;;
9461;SDS011;4769;42.660;23.262;2023-10-09T10:13:17;5.43;;;1.77;;
9461;SDS011;4769;42.660;23.262;2023-10-09T10:16:07;5.38;;;1.70;;
9461;SDS011;4769;42.660;23.262;2023-10-09T10:18:33;2.03;;;1.60;;
9461;SDS011;4769;42.660;23.262;2023-10-09T10:21:09;3.38;;;2.20;;
9461;SDS011;4769;42.660;23.262;2023-10-09T10:23:35;2.50;;;1.60;;
9461;SDS011;4769;42.660;23.262;2023-10-09T10:26:15;4.40;;;2.00;;
9461;SDS011;4769;42.660;23.262;2023-10-09T10:28:44;2.63;;;1.80;;
9461;SDS011;4769;42.660;23.262;2023-10-09T10:34:19;1.63;;;1.52;;
9461;SDS011;4769;42.660;23.262;2023-10-09T10:36:44;3.65;;;1.98;;
9461;SDS011;4769;42.660;23.262;2023-10-09T10:39:10;2.20;;;1.80;;
9461;SDS011;4769;42.660;23.262;2023-10-09T10:41:36;6.35;;;1.80;;
9461;SDS011;4769;42.660;23.262;2023-10-09T10:44:04;1.20;;;1.10;;
9461;SDS011;4769;42.660;23.262;2023-10-09T10:46:30;2.58;;;1.50;;
9461;SDS011;4769;42.660;23.262;2023-10-09T10:48:56;3.08;;;1.63;;
9461;SDS011;4769;42.660;23.262;2023-10-09T10:51:24;3.28;;;2.30;;
9461;SDS011;4769;42.660;23.262;2023-10-09T10:53:50;2.67;;;1.20;;
9461;SDS011;4769;42.660;23.262;2023-10-09T10:56:16;1.95;;;1.70;;
9461;SDS011;4769;42.660;23.262;2023-10-09T10:58:42;4.00;;;1.80;;
9461;SDS011;4769;42.660;23.262;2023-10-09T11:01:19;1.70;;;1.58;;
9461;SDS011;4769;42.660;23.262;2023-10-09T11:03:44;3.05;;;1.50;;
9461;SDS011;4769;42.660;23.262;2023-10-09T11:06:10;2.92;;;1.40;;
9461;SDS011;4769;42.660;23.262;2023-10-09T11:08:36;1.90;;;1.38;;
9461;SDS011;4769;42.660;23.262;2023-10-09T11:11:11;3.20;;;1.80;;
9461;SDS011;4769;42.660;23.262;2023-10-09T11:13:37;1.50;;;1.35;;
9461;SDS011;4769;42.660;23.262;2023-10-09T11:16:04;2.95;;;1.42;;
9461;SDS011;4769;42.660;23.262;2023-10-09T11:18:32;2.47;;;1.55;;
9461;SDS011;4769;42.660;23.262;2023-10-09T11:21:05;2.95;;;1.42;;
9461;SDS011;4769;42.660;23.262;2023-10-09T11:23:31;1.35;;;1.25;;
9461;SDS011;4769;42.660;23.262;2023-10-09T11:25:57;2.05;;;1.30;;
9461;SDS011;4769;42.660;23.262;2023-10-09T11:28:23;3.05;;;1.58;;
9461;SDS011;4769;42.660;23.262;2023-10-09T11:30:48;5.22;;;1.70;;
9461;SDS011;4769;42.660;23.262;2023-10-09T11:33:14;1.92;;;1.40;;
9461;SDS011;4769;42.660;23.262;2023-10-09T11:35:52;3.47;;;1.45;;
9461;SDS011;4769;42.660;23.262;2023-10-09T11:38:20;7.18;;;2.20;;
9461;SDS011;4769;42.660;23.262;2023-10-09T11:40:46;14.10;;;3.30;;
9461;SDS011;4769;42.660;23.262;2023-10-09T11:43:12;5.10;;;1.50;;
9461;SDS011;4769;42.660;23.262;2023-10-09T11:45:37;3.08;;;1.38;;
9461;SDS011;4769;42.660;23.262;2023-10-09T11:48:15;3.53;;;1.60;;
9461;SDS011;4769;42.660;23.262;2023-10-09T11:50:45;6.05;;;1.65;;
9461;SDS011;4769;42.660;23.262;2023-10-09T11:53:12;2.42;;;1.55;;
9461;SDS011;4769;42.660;23.262;2023-10-09T11:55:38;7.53;;;1.58;;
9461;SDS011;4769;42.660;23.262;2023-10-09T11:58:03;4.03;;;1.50;;
9461;SDS011;4769;42.660;23.262;2023-10-09T12:00:30;3.10;;;1.55;;
9461;SDS011;4769;42.660;23.262;2023-10-09T12:02:56;1.20;;;1.10;;
9461;SDS011;4769;42.660;23.262;2023-10-09T12:05:21;4.35;;;1.60;;
9461;SDS011;4769;42.660;23.262;2023-10-09T12:07:50;3.25;;;1.67;;
9461;SDS011;4769;42.660;23.262;2023-10-09T12:10:15;4.70;;;1.77;;
9461;SDS011;4769;42.660;23.262;2023-10-09T12:12:41;1.77;;;1.35;;
9461;SDS011;4769;42.660;23.262;2023-10-09T12:15:07;1.98;;;1.42;;
9461;SDS011;4769;42.660;23.262;2023-10-09T12:17:33;2.97;;;1.50;;
9461;SDS011;4769;42.660;23.262;2023-10-09T12:19:59;2.33;;;1.80;;
9461;SDS011;4769;42.660;23.262;2023-10-09T12:22:25;3.13;;;1.55;;
9461;SDS011;4769;42.660;23.262;2023-10-09T12:24:53;5.10;;;1.67;;
9461;SDS011;4769;42.660;23.262;2023-10-09T12:27:19;3.67;;;1.33;;
9461;SDS011;4769;42.660;23.262;2023-10-09T12:29:44;2.75;;;1.80;;
9461;SDS011;4769;42.660;23.262;2023-10-09T12:32:10;2.45;;;1.35;;
9461;SDS011;4769;42.660;23.262;2023-10-09T12:34:36;3.42;;;1.48;;
9461;SDS011;4769;42.660;23.262;2023-10-09T12:37:01;9.88;;;2.22;;
9461;SDS011;4769;42.660;23.262;2023-10-09T12:39:27;5.97;;;2.13;;
9461;SDS011;4769;42.660;23.262;2023-10-09T12:41:55;5.57;;;1.48;;
9461;SDS011;4769;42.660;23.262;2023-10-09T12:44:21;2.75;;;1.27;;
9461;SDS011;4769;42.660;23.262;2023-10-09T12:46:47;3.20;;;1.58;;
9461;SDS011;4769;42.660;23.262;2023-10-09T12:49:12;3.83;;;1.58;;
9461;SDS011;4769;42.660;23.262;2023-10-09T12:51:38;5.95;;;1.75;;
9461;SDS011;4769;42.660;23.262;2023-10-09T12:54:04;10.70;;;2.50;;
9461;SDS011;4769;42.660;23.262;2023-10-09T12:56:29;3.50;;;2.08;;
9461;SDS011;4769;42.660;23.262;2023-10-09T12:58:58;3.50;;;1.65;;
9461;SDS011;4769;42.660;23.262;2023-10-09T13:01:23;3.55;;;1.73;;
9461;SDS011;4769;42.660;23.262;2023-10-09T13:03:49;7.93;;;1.77;;
9461;SDS011;4769;42.660;23.262;2023-10-09T13:06:15;4.35;;;1.83;;
9461;SDS011;4769;42.660;23.262;2023-10-09T13:08:41;2.03;;;1.60;;
9461;SDS011;4769;42.660;23.262;2023-10-09T13:11:07;3.97;;;1.77;;
9461;SDS011;4769;42.660;23.262;2023-10-09T13:13:33;2.05;;;1.40;;
9461;SDS011;4769;42.660;23.262;2023-10-09T13:16:02;6.88;;;1.70;;
9461;SDS011;4769;42.660;23.262;2023-10-09T13:18:27;3.15;;;1.75;;
9461;SDS011;4769;42.660;23.262;2023-10-09T13:20:53;4.07;;;1.80;;
9461;SDS011;4769;42.660;23.262;2023-10-09T13:23:19;3.83;;;2.08;;
9461;SDS011;4769;42.660;23.262;2023-10-09T13:25:44;1.90;;;1.70;;
9461;SDS011;4769;42.660;23.262;2023-10-09T13:28:10;3.88;;;1.90;;
9461;SDS011;4769;42.660;23.262;2023-10-09T13:30:37;3.00;;;1.45;;
9461;SDS011;4769;42.660;23.262;2023-10-09T13:33:06;4.95;;;1.60;;
9461;SDS011;4769;42.660;23.262;2023-10-09T13:35:31;2.40;;;1.92;;
9461;SDS011;4769;42.660;23.262;2023-10-09T13:37:57;1.90;;;1.42;;
9461;SDS011;4769;42.660;23.262;2023-10-09T13:40:23;4.43;;;2.17;;
9461;SDS011;4769;42.660;23.262;2023-10-09T13:42:48;3.42;;;1.95;;
9461;SDS011;4769;42.660;23.262;2023-10-09T13:45:14;3.92;;;2.10;;
9461;SDS011;4769;42.660;23.262;2023-10-09T13:47:40;2.95;;;2.13;;
9461;SDS011;4769;42.660;23.262;2023-10-09T13:50:09;5.45;;;2.35;;
9461;SDS011;4769;42.660;23.262;2023-10-09T13:52:35;5.10;;;2.25;;
9461;SDS011;4769;42.660;23.262;2023-10-09T13:55:01;6.68;;;2.22;;
9461;SDS011;4769;42.660;23.262;2023-10-09T13:57:27;4.80;;;2.50;;
9461;SDS011;4769;42.660;23.262;2023-10-09T13:59:52;6.32;;;2.30;;
9461;SDS011;4769;42.660;23.262;2023-10-09T14:02:20;4.80;;;2.40;;
9461;SDS011;4769;42.660;23.262;2023-10-09T14:04:46;4.25;;;2.25;;
9461;SDS011;4769;42.660;23.262;2023-10-09T14:07:14;3.92;;;2.15;;
9461;SDS011;4769;42.660;23.262;2023-10-09T14:09:40;6.10;;;2.63;;
9461;SDS011;4769;42.660;23.262;2023-10-09T14:12:06;4.75;;;2.38;;
9461;SDS011;4769;42.660;23.262;2023-10-09T14:14:33;4.50;;;2.63;;
9461;SDS011;4769;42.660;23.262;2023-10-09T14:16:59;4.38;;;2.60;;
9461;SDS011;4769;42.660;23.262;2023-10-09T14:19:25;5.00;;;2.85;;
9461;SDS011;4769;42.660;23.262;2023-10-09T14:21:50;7.63;;;2.60;;
9461;SDS011;4769;42.660;23.262;2023-10-09T14:24:18;7.95;;;2.80;;
9461;SDS011;4769;42.660;23.262;2023-10-09T14:26:44;4.80;;;2.15;;
9461;SDS011;4769;42.660;23.262;2023-10-09T14:29:10;4.13;;;2.78;;
9461;SDS011;4769;42.660;23.262;2023-10-09T14:31:36;9.45;;;2.70;;
9461;SDS011;4769;42.660;23.262;2023-10-09T14:34:02;5.55;;;2.72;;
9461;SDS011;4769;42.660;23.262;2023-10-09T14:36:27;7.07;;;2.90;;
9461;SDS011;4769;42.660;23.262;2023-10-09T14:38:53;7.45;;;2.53;;
9461;SDS011;4769;42.660;23.262;2023-10-09T14:41:22;5.07;;;2.70;;
9461;SDS011;4769;42.660;23.262;2023-10-09T14:43:48;6.50;;;2.80;;
9461;SDS011;4769;42.660;23.262;2023-10-09T14:46:13;4.55;;;2.85;;
9461;SDS011;4769;42.660;23.262;2023-10-09T14:48:39;6.50;;;2.60;;
9461;SDS011;4769;42.660;23.262;2023-10-09T14:51:05;7.18;;;2.75;;
9461;SDS011;4769;42.660;23.262;2023-10-09T14:53:30;8.85;;;2.85;;
9461;SDS011;4769;42.660;23.262;2023-10-09T14:55:56;9.25;;;3.20;;
9461;SDS011;4769;42.660;23.262;2023-10-09T14:58:25;6.70;;;2.83;;